Latest Coastal Weather Observations for McCluer Island

IDD60701

Issued at 3:01 pm CST Tuesday 4 August 2015 (issued every 10 minutes, with the page automatically refreshed every 10 minutes)

About coastal observations | Map of coastal stations | Coastal observations for NT | Marine services | Other Formats
Station Details ID: 014274 Name: MCCLUER ISLAND Lat: -11.05 Lon: 132.98 Height: 1.4 m
Data from the previous 72 hours. | See also: Recent months at McCluer Island
Date/Time
CST
Temp

°C
Wind Pressure Rain
since 9am
mm
Weather Cloud Vis
km
Sea
Height
m
Swell
Dir
 
Speed
knots
Gust
knots
hPa Trend Height
m
Period
s
Dir
04/03:00pm 27.0 E 15 19 1012.5 - 0.0 - - - - - - -
04/02:30pm 27.8 ESE 17 22 1012.9 - 0.0 - - - - - - -
04/02:00pm 26.3 ESE 18 21 1013.4 - 0.0 - - - - - - -
04/01:30pm 26.8 ESE 19 23 1013.9 - 0.0 - - - - - - -
04/01:00pm 26.0 ESE 20 24 1014.3 - 0.0 - - - - - - -
04/12:30pm 26.1 ESE 18 23 1015.0 - 0.0 - - - - - - -
04/12:00pm 26.6 ESE 19 25 1015.5 - 0.0 - - - - - - -
04/11:30am 26.0 ESE 21 26 1015.8 - 0.0 - - - - - - -
04/11:00am 25.7 ESE 19 23 1016.1 - 0.0 - - - - - - -
04/10:30am 25.3 ESE 20 27 1016.5 - 0.0 - - - - - - -
04/10:00am 26.4 SE 16 22 1016.5 - 0.0 - - - - - - -
04/09:30am 26.1 SE 14 19 1016.0 - 0.0 - - - - - - -
04/09:00am 26.0 SE 13 17 1015.8 - 0.0 - - - - - - -
04/08:30am 25.5 ESE 15 17 1015.4 - 0.0 - - - - - - -
04/08:00am 25.2 ESE 14 18 1015.3 - 0.0 - - - - - - -
04/07:30am 24.8 ESE 15 19 1015.2 - 0.0 - - - - - - -
04/07:00am 24.0 ESE 12 15 1014.8 - 0.0 - - - - - - -
04/06:30am 24.1 ESE 12 16 1014.4 - 0.0 - - - - - - -
04/06:00am 25.0 E 15 17 1014.1 - 0.0 - - - - - - -
04/05:30am 23.6 ESE 10 14 1014.1 - 0.0 - - - - - - -
04/05:00am 23.3 ESE 13 14 1014.2 - 0.0 - - - - - - -
04/04:30am 23.8 ESE 12 15 1014.0 - 0.0 - - - - - - -
04/04:00am 23.9 ESE 11 15 1014.1 - 0.0 - - - - - - -
04/03:30am 24.3 ESE 13 16 1014.0 - 0.0 - - - - - - -
04/03:00am 23.7 ESE 14 16 1014.2 - 0.0 - - - - - - -
04/02:30am 24.7 ESE 18 22 1014.4 - 0.0 - - - - - - -
04/02:00am 24.7 ESE 17 21 1014.5 - 0.0 - - - - - - -
04/01:30am 24.5 ESE 13 16 1014.7 - 0.0 - - - - - - -
04/01:00am 24.5 ESE 12 14 1015.0 - 0.0 - - - - - - -
04/12:30am 24.8 ESE 14 18 1015.1 - 0.0 - - - - - - -
04/12:00am 25.6 E 16 19 1015.0 - 0.0 - - - - - - -
 
Date/Time
CST
Temp

°C
Wind Pressure Rain
since 9am
mm
Weather Cloud Vis
km
Sea
Height
m
Swell
Dir
 
Speed
knots
Gust
knots
hPa Trend Height
m
Period
s
Dir
03/11:30pm 25.7 E 17 20 1015.0 - 0.0 - - - - - - -
03/11:00pm 25.8 E 17 20 1014.9 - 0.0 - - - - - - -
03/10:30pm 25.6 E 19 21 1014.9 - 0.0 - - - - - - -
03/10:00pm 25.7 E 17 20 1014.8 - 0.0 - - - - - - -
03/09:30pm 25.6 E 17 19 1014.8 - 0.0 - - - - - - -
03/09:00pm 25.7 E 19 21 1014.5 - 0.0 - - - - - - -
03/08:30pm 25.7 E 17 19 1014.4 - 0.0 - - - - - - -
03/08:00pm 25.8 E 16 19 1014.2 - 0.0 - - - - - - -
03/07:30pm 25.5 E 17 21 1013.9 - 0.0 - - - - - - -
03/07:00pm 25.4 E 17 19 1014.0 - 0.0 - - - - - - -
03/06:30pm 25.4 E 16 19 1013.8 - 0.0 - - - - - - -
03/06:00pm 25.1 E 17 20 1013.5 - 0.0 - - - - - - -
03/05:30pm 25.3 E 18 20 1013.3 - 0.0 - - - - - - -
03/05:00pm 25.4 ESE 17 19 1013.2 - 0.0 - - - - - - -
03/04:30pm 25.8 ESE 17 20 1013.2 - 0.0 - - - - - - -
03/04:00pm 25.7 E 16 19 1013.3 - 0.0 - - - - - - -
03/03:30pm 26.0 ESE 17 19 1013.4 - 0.0 - - - - - - -
03/03:00pm 26.4 ESE 16 19 1013.6 - 0.0 - - - - - - -
03/02:30pm 26.3 ESE 15 18 1013.8 - 0.0 - - - - - - -
03/02:00pm 26.4 ESE 16 20 1014.2 - 0.0 - - - - - - -
03/01:30pm 27.0 ESE 15 19 1014.6 - 0.0 - - - - - - -
03/01:00pm 26.6 ESE 15 19 1014.8 - 0.0 - - - - - - -
03/12:30pm 26.7 ESE 15 19 1015.1 - 0.0 - - - - - - -
03/12:00pm 27.7 ESE 14 17 1015.3 - 0.0 - - - - - - -
03/11:30am 26.5 ESE 12 14 1015.6 - 0.0 - - - - - - -
03/11:00am 26.2 ESE 12 14 1015.8 - 0.0 - - - - - - -
03/10:30am 26.1 ESE 12 14 1016.1 - 0.0 - - - - - - -
03/10:00am 25.9 ESE 13 15 1016.2 - 0.0 - - - - - - -
03/09:30am 25.7 E 13 15 1016.3 - 0.0 - - - - - - -
03/09:00am 25.6 E 13 15 1016.2 - 0.0 - - - - - - -
03/08:30am 25.4 E 12 14 1015.9 - 0.0 - - - - - - -
03/08:00am 24.9 ESE 11 13 1015.6 - 0.0 - - - - - - -
03/07:30am 24.5 ESE 11 13 1015.6 - 0.0 - - - - - - -
03/07:00am 24.6 ESE 14 16 1015.4 - 0.0 - - - - - - -
03/06:30am 24.2 ESE 15 17 1015.2 - 0.0 - - - - - - -
03/06:00am 24.0 ESE 13 17 1015.0 - 0.0 - - - - - - -
03/05:30am 24.3 ESE 16 19 1014.8 - 0.0 - - - - - - -
03/05:00am 24.6 ESE 17 20 1014.6 - 0.0 - - - - - - -
03/04:30am 24.3 ESE 19 22 1014.4 - 0.0 - - - - - - -
03/04:00am 24.4 ESE 17 20 1014.3 - 0.0 - - - - - - -
03/03:30am 24.4 ESE 17 21 1014.5 - 0.0 - - - - - - -
03/03:00am 24.5 ESE 18 21 1014.6 - 0.0 - - - - - - -
03/02:30am 24.6 E 17 19 1014.7 - 0.0 - - - - - - -
03/02:00am 24.7 E 18 21 1014.8 - 0.0 - - - - - - -
03/01:30am 24.8 E 17 20 1015.0 - 0.0 - - - - - - -
03/01:00am 25.0 E 17 20 1015.2 - 0.0 - - - - - - -
03/12:30am 25.3 E 17 21 1015.4 - 0.0 - - - - - - -
03/12:00am 25.3 E 17 19 1015.4 - 0.0 - - - - - - -
 
Date/Time
CST
Temp

°C
Wind Pressure Rain
since 9am
mm
Weather Cloud Vis
km
Sea
Height
m
Swell
Dir
 
Speed
knots
Gust
knots
hPa Trend Height
m
Period
s
Dir
02/11:30pm 25.3 E 16 19 1015.4 - 0.0 - - - - - - -
02/11:00pm 25.4 E 16 19 1015.5 - 0.0 - - - - - - -
02/10:30pm 25.6 E 17 19 1015.5 - 0.0 - - - - - - -
02/10:00pm 25.6 E 18 20 1015.4 - 0.0 - - - - - - -
02/09:30pm 25.7 E 17 19 1015.1 - 0.0 - - - - - - -
02/09:00pm 25.4 E 18 21 1014.9 - 0.0 - - - - - - -
02/08:30pm 25.5 E 17 20 1014.7 - 0.0 - - - - - - -
02/08:00pm 25.6 E 16 18 1014.3 - 0.0 - - - - - - -
02/07:30pm 25.6 E 16 19 1014.0 - 0.0 - - - - - - -
02/07:00pm 25.3 E 16 17 1013.7 - 0.0 - - - - - - -
02/06:30pm 25.4 ESE 16 18 1013.6 - 0.0 - - - - - - -
02/06:00pm 25.4 E 16 19 1013.6 - 0.0 - - - - - - -
02/05:30pm 25.7 ESE 16 19 1013.4 - 0.0 - - - - - - -
02/05:00pm 25.5 ESE 17 19 1013.3 - 0.0 - - - - - - -
02/04:30pm 25.6 ESE 16 19 1013.3 - 0.0 - - - - - - -
02/04:00pm 26.0 ESE 14 17 1013.4 - 0.0 - - - - - - -
02/03:30pm 26.5 ESE 16 17 1013.5 - 0.0 - - - - - - -
02/03:00pm 26.2 ESE 16 20 1013.6 - 0.0 - - - - - - -
02/02:30pm 26.7 ESE 16 20 1013.9 - 0.0 - - - - - - -
02/02:00pm 26.4 ESE 16 19 1014.5 - 0.0 - - - - - - -
02/01:30pm 26.7 ESE 15 18 1014.8 - 0.0 - - - - - - -
02/01:00pm 26.9 ESE 14 19 1015.1 - 0.0 - - - - - - -
02/12:30pm 26.2 ESE 16 19 1015.5 - 0.0 - - - - - - -
02/12:00pm 27.5 ESE 15 19 1015.8 - 0.0 - - - - - - -
02/11:30am 26.5 ESE 16 18 1016.3 - 0.0 - - - - - - -
02/11:00am 25.8 ESE 16 19 1016.5 - 0.0 - - - - - - -
02/10:30am 26.1 ESE 16 18 1016.6 - 0.0 - - - - - - -
02/10:00am 25.2 ESE 19 22 1016.6 - 0.0 - - - - - - -
02/09:30am 25.4 ESE 19 22 1016.5 - 0.0 - - - - - - -
02/09:00am 25.1 ESE 18 20 1016.4 - 0.0 - - - - - - -
02/08:30am 25.0 ESE 17 21 1016.2 - 0.0 - - - - - - -
02/08:00am 24.6 ESE 19 23 1015.9 - 0.0 - - - - - - -
02/07:30am 24.3 ESE 20 23 1015.6 - 0.0 - - - - - - -
02/07:00am 24.2 E 18 21 1015.3 - 0.0 - - - - - - -
02/06:30am 24.4 ESE 19 21 1014.9 - 0.0 - - - - - - -
02/06:00am 24.8 E 21 23 1014.6 - 0.0 - - - - - - -
02/05:30am 24.9 E 20 23 1014.3 - 0.0 - - - - - - -
02/05:00am 25.2 E 17 20 1014.1 - 0.0 - - - - - - -
02/04:30am 25.1 E 17 21 1014.0 - 0.0 - - - - - - -
02/04:00am 24.8 E 18 21 1013.9 - 0.0 - - - - - - -
02/03:30am 24.9 E 19 21 1013.9 - 0.0 - - - - - - -
02/03:00am 24.7 ESE 18 23 1014.0 - 0.0 - - - - - - -
02/02:30am 24.9 E 19 22 1013.9 - 0.0 - - - - - - -
02/02:00am 24.9 E 19 23 1014.0 - 0.0 - - - - - - -
02/01:30am 25.1 E 18 22 1014.0 - 0.0 - - - - - - -
02/01:00am 25.2 E 17 20 1014.2 - 0.0 - - - - - - -
02/12:30am 25.3 E 16 20 1014.3 - 0.0 - - - - - - -
02/12:00am 25.4 E 18 21 1014.4 - 0.0 - - - - - - -
 
Date/Time
CST
Temp

°C
Wind Pressure Rain
since 9am
mm
Weather Cloud Vis
km
Sea
Height
m
Swell
Dir
 
Speed
knots
Gust
knots
hPa Trend Height
m
Period
s
Dir
01/11:30pm 25.4 E 18 22 1014.3 - 0.0 - - - - - - -
01/11:00pm 25.5 E 17 20 1014.2 - 0.0 - - - - - - -
01/10:30pm 25.5 E 17 19 1014.2 - 0.0 - - - - - - -
01/10:00pm 25.6 E 17 19 1014.2 - 0.0 - - - - - - -
01/09:30pm 25.3 E 14 16 1014.0 - 0.0 - - - - - - -
01/09:00pm 25.5 E 15 18 1013.6 - 0.0 - - - - - - -
01/08:30pm 25.6 E 13 14 1013.4 - 0.0 - - - - - - -
01/08:00pm 25.3 E 11 12 1013.3 - 0.0 - - - - - - -
01/07:30pm 25.2 E 10 12 1012.9 - 0.0 - - - - - - -
01/07:00pm 25.1 E 11 13 1012.7 - 0.0 - - - - - - -
01/06:30pm 25.1 E 12 14 1012.9 - 0.0 - - - - - - -
01/06:00pm 24.6 E 17 19 1012.9 - 0.0 - - - - - - -
01/05:30pm 25.1 E 17 20 1012.8 - 0.0 - - - - - - -
01/05:00pm 25.8 E 13 15 1012.6 - 0.0 - - - - - - -
01/04:30pm 25.9 E 13 15 1012.5 - 0.0 - - - - - - -
01/04:00pm 25.8 ESE 13 15 1012.6 - 0.0 - - - - - - -
01/03:30pm 26.2 ESE 15 18 1012.7 - 0.0 - - - - - - -

Other Formats:

Comma delimited format used in spreadsheet applications
http://www.bom.gov.au/fwo/IDD60701/IDD60701.94135.axf

JavaScript Object Notation format (JSON) in row-major order
http://www.bom.gov.au/fwo/IDD60701/IDD60701.94135.json